Time;durP1;ratioP1;P1;durP2;ratioP2;P2;SDS_P1;SDS_P2;PMS_P1;PMS_P2;Temp;Humidity;BMP_temperature;BMP_pressure;BME280_temperature;BME280_humidity;BME280_pressure;Samples;Min_cycle;Max_cycle;Signal;HPM_P1;HPM_P2
2023/09/09 00:00:19;;;;;;;17.37;11.20;;;;;;;;;;772732;180;920370;-68
2023/09/09 00:02:45;;;;;;;15.43;10.80;;;;;;;;;;764349;180;816704;-63
2023/09/09 00:05:12;;;;;;;11.57;10.33;;;;;;;;;;766441;181;913918;-63
2023/09/09 00:07:38;;;;;;;16.90;10.97;;;;;;;;;;772170;180;919163;-63
2023/09/09 00:10:04;;;;;;;16.20;10.93;;;;;;;;;;776508;180;918647;-64
2023/09/09 00:12:30;;;;;;;15.17;11.67;;;;;;;;;;775851;180;918769;-64
2023/09/09 00:14:57;;;;;;;17.43;11.43;;;;;;;;;;770790;180;919350;-68
2023/09/09 00:17:21;;;;;;;22.43;11.93;;;;;;;;;;774584;180;918682;-68
2023/09/09 00:19:49;;;;;;;17.67;12.47;;;;;;;;;;771196;177;919489;-69
2023/09/09 00:22:13;;;;;;;23.42;12.55;;;;;;;;;;773675;180;920550;-64
2023/09/09 00:24:39;;;;;;;30.73;14.83;;;;;;;;;;775848;181;820521;-68
2023/09/09 00:27:05;;;;;;;19.75;13.55;;;;;;;;;;773796;180;917106;-69
2023/09/09 00:29:30;;;;;;;18.40;12.90;;;;;;;;;;766169;180;913681;-63
2023/09/09 00:31:56;;;;;;;16.13;12.43;;;;;;;;;;773878;178;919095;-69
2023/09/09 00:34:22;;;;;;;18.53;12.03;;;;;;;;;;781957;177;919542;-69
2023/09/09 00:36:48;;;;;;;15.77;11.10;;;;;;;;;;776069;179;915585;-68
2023/09/09 00:39:14;;;;;;;16.20;11.10;;;;;;;;;;775924;179;918614;-69
2023/09/09 00:41:40;;;;;;;16.10;12.30;;;;;;;;;;767227;182;917286;-69
2023/09/09 00:44:08;;;;;;;17.07;13.60;;;;;;;;;;774215;178;918154;-69
2023/09/09 00:46:31;;;;;;;19.20;13.53;;;;;;;;;;772719;180;919018;-69
2023/09/09 00:49:00;;;;;;;15.55;11.60;;;;;;;;;;778504;181;919454;-64
2023/09/09 00:51:23;;;;;;;18.17;11.90;;;;;;;;;;769350;180;921327;-69
2023/09/09 00:53:49;;;;;;;15.80;12.87;;;;;;;;;;774336;181;917996;-70
2023/09/09 00:56:15;;;;;;;19.30;11.73;;;;;;;;;;773996;177;918872;-69
2023/09/09 00:58:41;;;;;;;20.20;12.55;;;;;;;;;;778101;180;914879;-69
2023/09/09 01:01:07;;;;;;;30.73;12.20;;;;;;;;;;771992;177;990209;-70
2023/09/09 01:03:32;;;;;;;17.97;13.20;;;;;;;;;;762698;180;922053;-70
2023/09/09 01:05:59;;;;;;;25.37;11.50;;;;;;;;;;778251;180;919377;-64
2023/09/09 01:08:26;;;;;;;14.40;11.00;;;;;;;;;;768691;180;918641;-64
2023/09/09 01:10:51;;;;;;;14.83;11.80;;;;;;;;;;772241;178;918440;-65
2023/09/09 01:13:17;;;;;;;14.65;11.95;;;;;;;;;;772392;181;916600;-71
2023/09/09 01:15:43;;;;;;;17.80;12.73;;;;;;;;;;769063;180;921245;-65
2023/09/09 01:18:08;;;;;;;19.50;12.98;;;;;;;;;;773708;178;918187;-71
2023/09/09 01:20:35;;;;;;;19.33;13.10;;;;;;;;;;773083;178;919118;-66
2023/09/09 01:23:01;;;;;;;14.83;12.13;;;;;;;;;;773217;181;921382;-64
2023/09/09 01:25:26;;;;;;;18.07;12.73;;;;;;;;;;777026;180;922038;-70
2023/09/09 01:27:52;;;;;;;20.97;12.87;;;;;;;;;;770923;180;919661;-70
2023/09/09 01:30:18;;;;;;;23.50;15.73;;;;;;;;;;754062;187;918892;-71
2023/09/09 01:32:44;;;;;;;22.60;11.63;;;;;;;;;;746542;187;916161;-66
2023/09/09 01:35:10;;;;;;;23.90;10.80;;;;;;;;;;747261;187;920210;-65
2023/09/09 01:37:36;;;;;;;13.70;10.00;;;;;;;;;;748542;186;918736;-64
2023/09/09 01:40:05;;;;;;;16.07;11.07;;;;;;;;;;750683;186;918979;-65
2023/09/09 01:42:27;;;;;;;14.00;11.90;;;;;;;;;;748208;186;920144;-64
2023/09/09 01:44:53;;;;;;;15.55;11.65;;;;;;;;;;774623;181;922554;-71
2023/09/09 01:47:19;;;;;;;18.00;11.63;;;;;;;;;;770324;180;951385;-71
2023/09/09 01:49:45;;;;;;;19.30;13.20;;;;;;;;;;770494;180;917876;-66
2023/09/09 01:52:11;;;;;;;14.77;10.63;;;;;;;;;;772822;178;922379;-71
2023/09/09 01:54:37;;;;;;;15.70;11.40;;;;;;;;;;772888;181;922214;-71
2023/09/09 01:57:02;;;;;;;15.20;11.03;;;;;;;;;;773334;179;920381;-71
2023/09/09 01:59:28;;;;;;;20.07;12.97;;;;;;;;;;777784;177;626611;-66
2023/09/09 02:01:54;;;;;;;15.63;12.30;;;;;;;;;;782900;180;643430;-65
2023/09/09 02:04:20;;;;;;;16.77;11.63;;;;;;;;;;776590;180;644798;-73
2023/09/09 02:06:46;;;;;;;17.00;13.77;;;;;;;;;;767598;177;895312;-72
2023/09/09 02:09:12;;;;;;;17.47;12.23;;;;;;;;;;779239;180;919070;-72
2023/09/09 02:11:38;;;;;;;14.67;11.93;;;;;;;;;;777800;178;802023;-71
2023/09/09 02:14:03;;;;;;;14.90;12.57;;;;;;;;;;772021;178;917986;-71
2023/09/09 02:16:29;;;;;;;16.10;10.40;;;;;;;;;;774771;179;901608;-70
2023/09/09 02:18:55;;;;;;;15.37;11.40;;;;;;;;;;770516;179;917185;-64
2023/09/09 02:21:21;;;;;;;18.80;14.30;;;;;;;;;;771999;180;1022333;-71
2023/09/09 02:23:47;;;;;;;18.07;14.37;;;;;;;;;;771388;181;916971;-65
2023/09/09 02:26:13;;;;;;;14.53;10.80;;;;;;;;;;779990;180;814205;-65
2023/09/09 02:28:39;;;;;;;13.90;10.27;;;;;;;;;;775148;180;891645;-64
2023/09/09 02:31:04;;;;;;;12.50;10.20;;;;;;;;;;770182;178;911754;-71
2023/09/09 02:33:30;;;;;;;16.70;11.57;;;;;;;;;;779527;180;1226022;-66
2023/09/09 02:35:58;;;;;;;13.00;10.87;;;;;;;;;;779312;180;914741;-65
2023/09/09 02:38:24;;;;;;;18.12;12.02;;;;;;;;;;775446;178;919208;-72
2023/09/09 02:40:50;;;;;;;13.57;11.00;;;;;;;;;;781969;177;918277;-73
2023/09/09 02:43:16;;;;;;;16.23;12.40;;;;;;;;;;771204;178;1018458;-65
2023/09/09 02:45:41;;;;;;;18.27;11.80;;;;;;;;;;773849;177;921449;-66
2023/09/09 02:48:07;;;;;;;16.30;12.47;;;;;;;;;;776931;180;919751;-65
2023/09/09 02:50:33;;;;;;;19.17;12.20;;;;;;;;;;777648;181;816721;-64
2023/09/09 02:52:59;;;;;;;14.63;10.67;;;;;;;;;;773854;178;918096;-71
2023/09/09 02:55:25;;;;;;;17.70;11.90;;;;;;;;;;770645;179;887207;-73
2023/09/09 02:57:51;;;;;;;12.53;8.90;;;;;;;;;;777564;179;917513;-72
2023/09/09 03:00:17;;;;;;;11.07;9.40;;;;;;;;;;774750;179;917698;-72
2023/09/09 03:02:42;;;;;;;12.00;10.40;;;;;;;;;;776528;180;928372;-66
2023/09/09 03:05:09;;;;;;;15.97;10.33;;;;;;;;;;777410;180;918462;-72
2023/09/09 03:07:35;;;;;;;16.47;11.10;;;;;;;;;;769112;181;930854;-71
2023/09/09 03:10:01;;;;;;;19.87;11.95;;;;;;;;;;769694;180;919977;-71
2023/09/09 03:12:27;;;;;;;13.00;11.13;;;;;;;;;;774495;177;916761;-65
2023/09/09 03:14:53;;;;;;;18.33;12.27;;;;;;;;;;771101;180;920282;-65
2023/09/09 03:17:19;;;;;;;19.10;12.47;;;;;;;;;;758937;180;915813;-73
2023/09/09 03:19:44;;;;;;;24.37;13.37;;;;;;;;;;770898;179;918219;-71
2023/09/09 03:22:10;;;;;;;14.40;12.67;;;;;;;;;;781045;180;918069;-71
2023/09/09 03:24:36;;;;;;;15.20;11.30;;;;;;;;;;770892;180;918751;-66
2023/09/09 03:27:02;;;;;;;18.80;15.07;;;;;;;;;;772587;181;1020188;-72
2023/09/09 03:29:28;;;;;;;18.00;13.70;;;;;;;;;;780133;178;918772;-66
2023/09/09 03:31:54;;;;;;;19.47;15.00;;;;;;;;;;776217;179;914014;-73
2023/09/09 03:34:19;;;;;;;26.43;13.40;;;;;;;;;;768869;179;920709;-73
2023/09/09 03:36:45;;;;;;;19.27;12.70;;;;;;;;;;770199;181;919405;-72
2023/09/09 03:39:11;;;;;;;17.13;12.77;;;;;;;;;;773738;178;920323;-72
2023/09/09 03:41:37;;;;;;;19.67;13.20;;;;;;;;;;773219;180;923043;-72
2023/09/09 03:44:03;;;;;;;16.30;13.40;;;;;;;;;;769508;177;876567;-72
2023/09/09 03:46:29;;;;;;;15.53;10.63;;;;;;;;;;780290;180;919042;-72
2023/09/09 03:48:55;;;;;;;16.40;9.70;;;;;;;;;;774597;178;918783;-72
2023/09/09 03:51:20;;;;;;;12.53;9.00;;;;;;;;;;775414;178;917663;-71
2023/09/09 03:53:46;;;;;;;15.70;10.70;;;;;;;;;;781469;180;918972;-72
2023/09/09 03:56:12;;;;;;;13.50;11.17;;;;;;;;;;775163;177;918791;-66
2023/09/09 03:58:38;;;;;;;14.32;10.77;;;;;;;;;;760101;181;918434;-65
2023/09/09 04:01:05;;;;;;;14.30;11.57;;;;;;;;;;777075;181;910672;-71
2023/09/09 04:03:33;;;;;;;15.37;13.30;;;;;;;;;;769790;180;920850;-65
2023/09/09 04:05:56;;;;;;;14.90;12.27;;;;;;;;;;769460;180;918316;-71
2023/09/09 04:08:22;;;;;;;21.07;12.40;;;;;;;;;;772209;177;919967;-66
2023/09/09 04:10:48;;;;;;;15.53;11.80;;;;;;;;;;770163;181;919601;-65
2023/09/09 04:13:14;;;;;;;61.53;11.60;;;;;;;;;;768025;180;918981;-65
2023/09/09 04:15:40;;;;;;;21.93;10.23;;;;;;;;;;766597;180;912040;-65
2023/09/09 04:18:06;;;;;;;15.53;13.17;;;;;;;;;;777938;180;919238;-65
2023/09/09 04:20:32;;;;;;;19.10;13.27;;;;;;;;;;772957;178;919296;-65
2023/09/09 04:22:58;;;;;;;16.17;13.00;;;;;;;;;;771881;180;920337;-71
2023/09/09 04:25:23;;;;;;;14.03;11.80;;;;;;;;;;779552;178;797374;-72
2023/09/09 04:27:49;;;;;;;16.17;11.97;;;;;;;;;;769612;181;919280;-71
2023/09/09 04:30:15;;;;;;;15.70;12.47;;;;;;;;;;772871;180;816150;-65
2023/09/09 04:32:41;;;;;;;15.30;11.63;;;;;;;;;;773907;180;917423;-65
2023/09/09 04:35:07;;;;;;;16.75;12.75;;;;;;;;;;771646;179;837015;-71
2023/09/09 04:37:33;;;;;;;17.60;13.33;;;;;;;;;;770561;180;919446;-71
2023/09/09 04:39:58;;;;;;;15.23;11.90;;;;;;;;;;763022;180;881266;-65
2023/09/09 04:42:25;;;;;;;15.33;12.43;;;;;;;;;;779760;180;919431;-71
2023/09/09 04:44:50;;;;;;;19.85;13.13;;;;;;;;;;775706;180;854162;-71
2023/09/09 04:47:16;;;;;;;15.27;13.17;;;;;;;;;;772395;178;840039;-65
2023/09/09 04:49:42;;;;;;;18.80;12.40;;;;;;;;;;775799;181;916313;-70
2023/09/09 04:52:08;;;;;;;16.97;11.80;;;;;;;;;;774409;181;920148;-71
2023/09/09 04:54:34;;;;;;;17.03;12.40;;;;;;;;;;775721;176;917355;-71
2023/09/09 04:56:59;;;;;;;16.80;11.40;;;;;;;;;;781597;180;817051;-71
2023/09/09 04:59:25;;;;;;;13.93;11.07;;;;;;;;;;778297;179;819211;-65
2023/09/09 05:01:51;;;;;;;13.80;11.70;;;;;;;;;;771345;180;905483;-71
2023/09/09 05:04:17;;;;;;;16.03;11.30;;;;;;;;;;776025;177;818628;-65
2023/09/09 05:06:43;;;;;;;14.80;11.70;;;;;;;;;;770464;182;918351;-64
2023/09/09 05:09:09;;;;;;;13.97;11.60;;;;;;;;;;771724;179;919270;-63
2023/09/09 05:11:35;;;;;;;14.43;11.63;;;;;;;;;;768323;180;913832;-65
2023/09/09 05:14:00;;;;;;;14.33;11.47;;;;;;;;;;778188;180;911106;-71
2023/09/09 05:16:28;;;;;;;17.93;12.40;;;;;;;;;;774439;178;920019;-63
2023/09/09 05:18:52;;;;;;;16.40;12.15;;;;;;;;;;777514;177;822062;-65
2023/09/09 05:21:18;;;;;;;16.23;11.57;;;;;;;;;;777650;178;916844;-71
2023/09/09 05:23:44;;;;;;;19.00;12.70;;;;;;;;;;768219;181;918043;-72
2023/09/09 05:26:10;;;;;;;15.65;11.88;;;;;;;;;;775332;178;818728;-65
2023/09/09 05:28:35;;;;;;;21.27;15.43;;;;;;;;;;775629;177;890755;-64
2023/09/09 05:31:01;;;;;;;19.07;12.47;;;;;;;;;;775979;180;860916;-72
2023/09/09 05:33:27;;;;;;;19.83;14.27;;;;;;;;;;769808;178;921432;-72
2023/09/09 05:35:53;;;;;;;17.37;14.10;;;;;;;;;;773805;178;918461;-66
2023/09/09 05:38:19;;;;;;;19.07;14.53;;;;;;;;;;779072;180;918315;-65
2023/09/09 05:40:45;;;;;;;17.93;14.57;;;;;;;;;;771015;177;912589;-72
2023/09/09 05:43:11;;;;;;;24.57;16.00;;;;;;;;;;771066;180;914641;-66
2023/09/09 05:45:37;;;;;;;15.87;12.43;;;;;;;;;;780879;177;818601;-72
2023/09/09 05:48:03;;;;;;;18.10;14.83;;;;;;;;;;758866;183;914704;-72
2023/09/09 05:50:29;;;;;;;18.07;14.40;;;;;;;;;;767604;181;909563;-66
2023/09/09 05:52:55;;;;;;;17.17;13.73;;;;;;;;;;779411;178;919204;-66
2023/09/09 05:55:20;;;;;;;21.10;14.07;;;;;;;;;;775100;178;817051;-66
2023/09/09 05:57:46;;;;;;;20.60;13.87;;;;;;;;;;769221;180;919514;-65
2023/09/09 06:00:12;;;;;;;20.45;15.05;;;;;;;;;;771551;181;940090;-66
2023/09/09 06:02:38;;;;;;;16.02;13.52;;;;;;;;;;773660;179;1016778;-72
2023/09/09 06:05:05;;;;;;;18.57;12.20;;;;;;;;;;769798;181;920207;-65
2023/09/09 06:07:30;;;;;;;16.30;14.03;;;;;;;;;;777018;179;918667;-65
2023/09/09 06:09:56;;;;;;;15.80;13.10;;;;;;;;;;779855;181;712748;-66
2023/09/09 06:12:22;;;;;;;14.50;13.00;;;;;;;;;;775824;180;918776;-72
2023/09/09 06:14:48;;;;;;;14.63;12.80;;;;;;;;;;776597;178;817133;-66
2023/09/09 06:17:14;;;;;;;14.20;12.37;;;;;;;;;;780781;180;901714;-66
2023/09/09 06:19:40;;;;;;;14.37;12.50;;;;;;;;;;774133;178;917667;-72
2023/09/09 06:22:05;;;;;;;13.80;11.73;;;;;;;;;;775373;180;814510;-72
2023/09/09 06:24:31;;;;;;;13.77;11.63;;;;;;;;;;777379;178;918737;-71
2023/09/09 06:26:57;;;;;;;16.60;13.40;;;;;;;;;;771504;179;920685;-65
2023/09/09 06:29:25;;;;;;;12.87;10.47;;;;;;;;;;775715;179;813593;-65
2023/09/09 06:31:49;;;;;;;12.03;10.63;;;;;;;;;;770445;178;917393;-66
2023/09/09 06:34:15;;;;;;;12.87;10.70;;;;;;;;;;774223;177;923264;-71
2023/09/09 06:36:40;;;;;;;15.10;10.10;;;;;;;;;;769367;178;919096;-64
2023/09/09 06:39:06;;;;;;;11.83;10.33;;;;;;;;;;771758;178;922004;-70
2023/09/09 06:41:32;;;;;;;13.40;11.67;;;;;;;;;;777632;178;918218;-71
2023/09/09 06:43:58;;;;;;;15.00;11.53;;;;;;;;;;772143;180;939647;-70
2023/09/09 06:46:24;;;;;;;13.57;10.70;;;;;;;;;;774729;180;815943;-70
2023/09/09 06:48:50;;;;;;;15.50;11.60;;;;;;;;;;780074;178;918751;-69
2023/09/09 06:51:16;;;;;;;11.63;10.00;;;;;;;;;;771170;178;920355;-69
2023/09/09 06:53:42;;;;;;;14.10;11.17;;;;;;;;;;773319;180;921964;-70
2023/09/09 06:56:08;;;;;;;13.18;10.57;;;;;;;;;;775915;179;815721;-67
2023/09/09 06:58:34;;;;;;;11.83;10.03;;;;;;;;;;769507;181;816915;-63
2023/09/09 07:01:02;;;;;;;15.90;11.60;;;;;;;;;;766054;181;631706;-70
2023/09/09 07:03:25;;;;;;;14.32;12.25;;;;;;;;;;773262;177;620910;-64
2023/09/09 07:05:51;;;;;;;14.80;11.57;;;;;;;;;;778372;180;915831;-69
2023/09/09 07:08:17;;;;;;;15.13;12.03;;;;;;;;;;772063;178;917106;-70
2023/09/09 07:10:48;;;;;;;16.53;12.33;;;;;;;;;;773091;180;919348;-69
2023/09/09 07:13:14;;;;;;;13.50;12.10;;;;;;;;;;776960;178;917262;-63
2023/09/09 07:15:40;;;;;;;14.57;10.77;;;;;;;;;;776265;177;914771;-71
2023/09/09 07:18:05;;;;;;;14.07;11.27;;;;;;;;;;774063;180;918582;-68
2023/09/09 07:20:31;;;;;;;13.67;11.43;;;;;;;;;;775099;177;915531;-64
2023/09/09 07:22:57;;;;;;;15.83;11.27;;;;;;;;;;782967;180;619367;-63
2023/09/09 07:25:23;;;;;;;12.63;11.30;;;;;;;;;;778165;177;619912;-63
2023/09/09 07:27:49;;;;;;;16.47;11.33;;;;;;;;;;779352;178;619095;-64
2023/09/09 07:30:14;;;;;;;12.70;11.13;;;;;;;;;;780798;180;913508;-63
2023/09/09 07:32:40;;;;;;;14.83;11.27;;;;;;;;;;767525;180;916907;-68
2023/09/09 07:35:07;;;;;;;16.50;11.60;;;;;;;;;;769190;180;934383;-63
2023/09/09 07:37:33;;;;;;;13.93;9.80;;;;;;;;;;778640;180;916714;-68
2023/09/09 07:39:58;;;;;;;13.00;10.50;;;;;;;;;;773821;177;918803;-63
2023/09/09 07:42:24;;;;;;;11.37;9.77;;;;;;;;;;772946;178;918860;-68
2023/09/09 07:44:50;;;;;;;17.03;10.57;;;;;;;;;;776482;177;925840;-67
2023/09/09 07:47:16;;;;;;;14.83;10.60;;;;;;;;;;765039;180;917262;-63
2023/09/09 07:49:42;;;;;;;18.70;10.80;;;;;;;;;;763842;182;922436;-63
2023/09/09 07:52:08;;;;;;;17.40;10.93;;;;;;;;;;774819;180;814773;-67
2023/09/09 07:54:34;;;;;;;14.30;9.70;;;;;;;;;;769219;181;905181;-63
2023/09/09 07:56:59;;;;;;;13.30;10.43;;;;;;;;;;765359;177;936845;-61
2023/09/09 07:59:26;;;;;;;13.63;10.00;;;;;;;;;;772694;180;915844;-62
2023/09/09 08:01:51;;;;;;;16.83;9.33;;;;;;;;;;776838;180;919811;-68
2023/09/09 08:04:17;;;;;;;17.20;10.70;;;;;;;;;;770571;180;910461;-69
2023/09/09 08:06:43;;;;;;;18.60;11.40;;;;;;;;;;773988;179;913869;-69
2023/09/09 08:09:09;;;;;;;16.90;10.73;;;;;;;;;;777400;179;918224;-71
2023/09/09 08:11:34;;;;;;;12.47;9.90;;;;;;;;;;774897;180;918714;-61
2023/09/09 08:14:00;;;;;;;12.50;10.13;;;;;;;;;;774435;180;918799;-63
2023/09/09 08:16:26;;;;;;;12.63;10.03;;;;;;;;;;772283;180;919164;-68
2023/09/09 08:18:52;;;;;;;15.03;10.67;;;;;;;;;;779870;180;918286;-68
2023/09/09 08:21:18;;;;;;;11.37;9.47;;;;;;;;;;769697;179;919018;-68
2023/09/09 08:23:44;;;;;;;11.67;9.03;;;;;;;;;;771812;180;917732;-67
2023/09/09 08:26:11;;;;;;;12.43;10.23;;;;;;;;;;771049;181;919124;-68
2023/09/09 08:28:35;;;;;;;12.40;10.27;;;;;;;;;;772238;180;919169;-68
2023/09/09 08:31:02;;;;;;;11.43;9.27;;;;;;;;;;775967;180;919047;-63
2023/09/09 08:33:27;;;;;;;11.37;9.03;;;;;;;;;;779409;177;918595;-63
2023/09/09 08:35:53;;;;;;;13.07;8.77;;;;;;;;;;776533;179;919061;-67
2023/09/09 08:38:19;;;;;;;12.70;9.40;;;;;;;;;;776557;177;918021;-67
2023/09/09 08:40:46;;;;;;;10.87;8.20;;;;;;;;;;771149;179;917753;-62
2023/09/09 08:43:19;;;;;;;10.20;8.60;;;;;;;;;;767893;180;919459;-63
2023/09/09 08:45:47;;;;;;;8.77;7.47;;;;;;;;;;765897;182;920900;-62
2023/09/09 08:48:12;;;;;;;11.50;8.57;;;;;;;;;;769929;180;919132;-61
2023/09/09 08:50:38;;;;;;;10.10;8.13;;;;;;;;;;776573;180;918705;-68
2023/09/09 08:53:04;;;;;;;10.80;8.30;;;;;;;;;;771444;179;919635;-61
2023/09/09 08:55:30;;;;;;;8.70;7.23;;;;;;;;;;773105;179;918142;-63
2023/09/09 08:57:56;;;;;;;10.90;8.20;;;;;;;;;;771700;180;919477;-67
2023/09/09 09:00:22;;;;;;;11.07;8.10;;;;;;;;;;779164;180;836891;-67
2023/09/09 09:02:48;;;;;;;9.30;7.40;;;;;;;;;;775714;177;916082;-67
2023/09/09 09:05:13;;;;;;;10.95;6.75;;;;;;;;;;760175;184;1021634;-66
2023/09/09 09:07:39;;;;;;;8.67;6.63;;;;;;;;;;771320;181;918555;-66
2023/09/09 09:10:05;;;;;;;10.63;6.20;;;;;;;;;;772051;180;868178;-67
2023/09/09 09:12:31;;;;;;;8.57;6.37;;;;;;;;;;771027;180;897981;-67
2023/09/09 09:14:57;;;;;;;9.73;6.20;;;;;;;;;;775617;180;919700;-69
2023/09/09 09:17:23;;;;;;;10.17;7.37;;;;;;;;;;774024;180;914571;-67
2023/09/09 09:19:49;;;;;;;10.55;5.93;;;;;;;;;;761416;181;922695;-67
2023/09/09 09:22:15;;;;;;;8.77;5.87;;;;;;;;;;770193;181;923035;-66
2023/09/09 09:24:41;;;;;;;8.47;5.53;;;;;;;;;;779110;180;924322;-67
2023/09/09 09:27:08;;;;;;;7.90;6.23;;;;;;;;;;773844;179;913231;-66
2023/09/09 09:29:42;;;;;;;7.07;5.70;;;;;;;;;;772076;180;920294;-66
2023/09/09 09:32:10;;;;;;;11.07;5.37;;;;;;;;;;778722;180;919809;-67
2023/09/09 09:34:35;;;;;;;7.90;5.30;;;;;;;;;;778170;180;918850;-67
2023/09/09 09:37:05;;;;;;;9.73;5.73;;;;;;;;;;773607;180;816025;-67
2023/09/09 09:39:31;;;;;;;9.43;7.23;;;;;;;;;;768128;181;918157;-66
2023/09/09 09:41:57;;;;;;;6.77;5.40;;;;;;;;;;778097;177;915913;-66
2023/09/09 09:44:23;;;;;;;6.47;5.57;;;;;;;;;;776171;178;916508;-67
2023/09/09 09:46:55;;;;;;;7.77;5.47;;;;;;;;;;773424;180;923533;-66
2023/09/09 09:49:20;;;;;;;7.13;4.73;;;;;;;;;;774299;178;927029;-66
2023/09/09 09:51:46;;;;;;;8.67;4.90;;;;;;;;;;777921;180;917843;-66
2023/09/09 09:54:12;;;;;;;6.60;5.20;;;;;;;;;;771080;180;919201;-65
2023/09/09 09:56:38;;;;;;;10.80;5.60;;;;;;;;;;772848;180;913504;-65
2023/09/09 09:59:04;;;;;;;7.40;5.33;;;;;;;;;;780138;180;917865;-66
2023/09/09 10:01:30;;;;;;;8.30;5.40;;;;;;;;;;769986;180;817064;-66
2023/09/09 10:03:57;;;;;;;6.93;5.10;;;;;;;;;;771904;180;911924;-65
2023/09/09 10:06:22;;;;;;;8.13;5.07;;;;;;;;;;779934;178;783297;-65
2023/09/09 10:08:49;;;;;;;7.03;4.37;;;;;;;;;;772174;180;914195;-65
2023/09/09 10:11:15;;;;;;;7.07;5.63;;;;;;;;;;769964;180;916816;-67
2023/09/09 10:13:44;;;;;;;6.50;4.53;;;;;;;;;;775362;180;920227;-66
2023/09/09 10:16:10;;;;;;;7.03;5.07;;;;;;;;;;775839;180;919090;-66
2023/09/09 10:18:35;;;;;;;6.67;4.90;;;;;;;;;;771378;181;919417;-59
2023/09/09 10:21:01;;;;;;;15.10;6.30;;;;;;;;;;774244;180;921470;-61
2023/09/09 10:23:27;;;;;;;5.53;4.67;;;;;;;;;;774961;181;819594;-66
2023/09/09 10:25:53;;;;;;;7.07;4.83;;;;;;;;;;773766;180;858961;-65
2023/09/09 10:28:19;;;;;;;7.53;5.43;;;;;;;;;;771639;180;918512;-61
2023/09/09 10:30:45;;;;;;;9.17;6.60;;;;;;;;;;778018;181;924979;-66
2023/09/09 10:33:11;;;;;;;9.30;6.17;;;;;;;;;;772935;180;918819;-66
2023/09/09 10:35:36;;;;;;;6.93;5.03;;;;;;;;;;774578;180;918857;-65
2023/09/09 10:38:02;;;;;;;9.73;5.00;;;;;;;;;;770964;181;938798;-65
2023/09/09 10:40:28;;;;;;;11.07;6.00;;;;;;;;;;774974;181;919982;-66
2023/09/09 10:42:54;;;;;;;7.80;5.40;;;;;;;;;;772658;178;918411;-65
2023/09/09 10:45:22;;;;;;;8.93;5.40;;;;;;;;;;770828;179;919945;-65
2023/09/09 10:47:53;;;;;;;7.07;5.20;;;;;;;;;;782751;179;623667;-66
2023/09/09 10:50:19;;;;;;;10.13;5.10;;;;;;;;;;778005;178;816157;-66
2023/09/09 10:52:45;;;;;;;6.97;5.50;;;;;;;;;;775653;179;918825;-67
2023/09/09 10:55:12;;;;;;;6.73;4.90;;;;;;;;;;768936;179;921133;-62
2023/09/09 10:57:38;;;;;;;7.53;5.00;;;;;;;;;;778170;180;917638;-61
2023/09/09 11:00:05;;;;;;;16.53;5.93;;;;;;;;;;777132;177;922731;-67
2023/09/09 11:02:29;;;;;;;7.30;5.70;;;;;;;;;;775264;177;944828;-61
2023/09/09 11:04:57;;;;;;;6.50;4.93;;;;;;;;;;775742;181;935474;-61
2023/09/09 11:07:23;;;;;;;10.30;5.40;;;;;;;;;;771436;179;919085;-62
2023/09/09 11:09:49;;;;;;;6.90;4.93;;;;;;;;;;772243;181;916546;-66
2023/09/09 11:12:15;;;;;;;7.13;5.30;;;;;;;;;;779483;178;920779;-62
2023/09/09 11:14:40;;;;;;;7.07;5.43;;;;;;;;;;771549;180;914805;-62
2023/09/09 11:17:06;;;;;;;7.97;5.70;;;;;;;;;;771992;181;922279;-62
2023/09/09 11:19:32;;;;;;;7.63;5.90;;;;;;;;;;774173;178;917776;-66
2023/09/09 11:21:58;;;;;;;8.97;6.33;;;;;;;;;;776861;180;820328;-67
2023/09/09 11:24:24;;;;;;;7.07;5.93;;;;;;;;;;765530;181;816325;-61
2023/09/09 11:26:50;;;;;;;8.20;5.60;;;;;;;;;;774633;180;816917;-66
2023/09/09 11:29:16;;;;;;;8.37;5.43;;;;;;;;;;777665;180;874789;-61
2023/09/09 11:31:42;;;;;;;6.87;5.23;;;;;;;;;;771377;181;918702;-68
2023/09/09 11:34:07;;;;;;;6.40;5.03;;;;;;;;;;770941;181;918954;-61
2023/09/09 11:36:33;;;;;;;5.77;5.07;;;;;;;;;;780299;180;919179;-62
2023/09/09 11:39:00;;;;;;;8.27;5.70;;;;;;;;;;769800;178;919917;-61
2023/09/09 11:41:26;;;;;;;8.13;5.67;;;;;;;;;;770917;179;917368;-67
2023/09/09 11:43:57;;;;;;;6.17;5.20;;;;;;;;;;772317;177;920051;-65
2023/09/09 11:46:23;;;;;;;6.00;5.17;;;;;;;;;;777992;180;919348;-67
2023/09/09 11:48:49;;;;;;;6.03;5.13;;;;;;;;;;768748;177;919166;-66
2023/09/09 11:51:15;;;;;;;8.63;6.13;;;;;;;;;;768334;181;919727;-66
2023/09/09 11:53:41;;;;;;;11.03;5.33;;;;;;;;;;778126;180;919059;-62
2023/09/09 11:56:07;;;;;;;6.80;5.50;;;;;;;;;;774554;178;919536;-67
2023/09/09 11:58:37;;;;;;;6.00;5.30;;;;;;;;;;771573;179;914804;-60
2023/09/09 12:01:03;;;;;;;8.00;5.53;;;;;;;;;;760462;181;914979;-65
2023/09/09 12:03:29;;;;;;;6.70;5.37;;;;;;;;;;779116;180;1126821;-62
2023/09/09 12:05:55;;;;;;;6.13;5.50;;;;;;;;;;777184;178;919314;-68
2023/09/09 12:08:21;;;;;;;7.43;5.40;;;;;;;;;;772890;180;920432;-63
2023/09/09 12:10:47;;;;;;;8.67;5.60;;;;;;;;;;763743;181;922908;-61
2023/09/09 12:13:13;;;;;;;8.20;5.13;;;;;;;;;;776883;177;914537;-61
2023/09/09 12:15:38;;;;;;;6.60;5.33;;;;;;;;;;773484;178;623843;-61
2023/09/09 12:18:12;;;;;;;8.83;5.90;;;;;;;;;;779138;180;636020;-67
2023/09/09 12:20:44;;;;;;;9.80;6.13;;;;;;;;;;779765;181;920847;-67
2023/09/09 12:23:10;;;;;;;6.33;5.67;;;;;;;;;;775525;180;917138;-63
2023/09/09 12:25:36;;;;;;;7.57;5.90;;;;;;;;;;777204;178;634858;-67
2023/09/09 12:28:02;;;;;;;6.57;5.60;;;;;;;;;;779966;177;921663;-67
2023/09/09 12:30:32;;;;;;;7.20;5.53;;;;;;;;;;774570;179;629078;-61
2023/09/09 12:33:13;;;;;;;6.97;5.20;;;;;;;;;;777859;177;625957;-69
2023/09/09 12:35:39;;;;;;;6.90;4.40;;;;;;;;;;772786;180;630902;-62
2023/09/09 12:38:05;;;;;;;6.70;5.80;;;;;;;;;;771399;177;917583;-62
2023/09/09 12:40:47;;;;;;;7.50;5.67;;;;;;;;;;779697;177;817244;-62
2023/09/09 12:43:12;;;;;;;6.20;5.57;;;;;;;;;;773982;182;911625;-61
2023/09/09 12:45:47;;;;;;;7.20;5.40;;;;;;;;;;766916;178;905592;-62
2023/09/09 12:48:13;;;;;;;6.60;5.73;;;;;;;;;;744126;185;919248;-61
2023/09/09 12:50:39;;;;;;;5.90;4.90;;;;;;;;;;743021;184;926980;-62
2023/09/09 12:53:05;;;;;;;7.73;5.60;;;;;;;;;;771709;180;918889;-66
2023/09/09 12:55:31;;;;;;;11.30;6.70;;;;;;;;;;768882;180;916938;-62
2023/09/09 12:57:57;;;;;;;6.53;5.10;;;;;;;;;;772059;178;917710;-62
2023/09/09 13:00:22;;;;;;;6.97;6.00;;;;;;;;;;778193;177;919756;-63
2023/09/09 13:02:48;;;;;;;7.27;5.70;;;;;;;;;;775268;179;814472;-61
2023/09/09 13:05:14;;;;;;;5.63;4.80;;;;;;;;;;757999;184;822159;-67
2023/09/09 13:07:40;;;;;;;10.23;5.87;;;;;;;;;;771711;181;917780;-62
2023/09/09 13:10:06;;;;;;;7.47;5.90;;;;;;;;;;774013;180;918666;-63
2023/09/09 13:12:32;;;;;;;5.68;5.07;;;;;;;;;;774139;179;814075;-62
2023/09/09 13:14:58;;;;;;;7.80;4.90;;;;;;;;;;769670;179;1023460;-66
2023/09/09 13:17:23;;;;;;;6.97;5.67;;;;;;;;;;761845;181;918667;-65
2023/09/09 13:19:49;;;;;;;8.53;5.50;;;;;;;;;;759583;181;918655;-67
2023/09/09 13:22:15;;;;;;;8.03;5.40;;;;;;;;;;777342;180;627501;-60
2023/09/09 13:24:41;;;;;;;7.70;6.20;;;;;;;;;;781235;180;627034;-66
2023/09/09 13:27:07;;;;;;;9.03;6.10;;;;;;;;;;780714;178;635658;-66
2023/09/09 13:29:33;;;;;;;6.80;5.63;;;;;;;;;;779515;177;621430;-61
2023/09/09 13:31:58;;;;;;;8.33;6.07;;;;;;;;;;780796;177;815565;-67
2023/09/09 13:34:24;;;;;;;6.20;5.60;;;;;;;;;;770218;179;921037;-61
2023/09/09 13:36:50;;;;;;;10.93;5.33;;;;;;;;;;770871;181;919230;-67
2023/09/09 13:39:16;;;;;;;7.90;5.97;;;;;;;;;;773317;180;919036;-61
2023/09/09 13:41:42;;;;;;;7.73;5.43;;;;;;;;;;774827;179;919942;-67
2023/09/09 13:44:08;;;;;;;7.57;6.43;;;;;;;;;;773082;179;906589;-66
2023/09/09 13:46:34;;;;;;;8.90;6.20;;;;;;;;;;774031;180;919508;-65
2023/09/09 13:48:59;;;;;;;8.83;5.53;;;;;;;;;;776709;180;918642;-60
2023/09/09 13:51:25;;;;;;;7.60;5.30;;;;;;;;;;761397;184;918694;-66
2023/09/09 13:53:51;;;;;;;6.30;5.57;;;;;;;;;;769518;180;924359;-65
2023/09/09 13:56:17;;;;;;;8.77;5.53;;;;;;;;;;777986;180;919149;-61
2023/09/09 13:58:43;;;;;;;12.67;5.80;;;;;;;;;;771377;181;918584;-65
2023/09/09 14:01:09;;;;;;;11.47;5.50;;;;;;;;;;776326;180;870937;-65
2023/09/09 14:03:34;;;;;;;5.97;5.17;;;;;;;;;;774854;180;917203;-65
2023/09/09 14:06:00;;;;;;;8.60;6.03;;;;;;;;;;774003;180;817207;-66